createdAt,value
2018-09-21T00:02:10.341Z,15.70
2018-09-21T00:04:38.569Z,15.70
2018-09-21T00:07:06.805Z,15.80
2018-09-21T00:09:34.968Z,15.80
2018-09-21T00:12:03.169Z,15.70
2018-09-21T00:14:31.340Z,15.70
2018-09-21T00:16:59.545Z,15.80
2018-09-21T00:19:27.797Z,15.80
2018-09-21T00:21:55.948Z,15.70
2018-09-21T00:24:24.149Z,15.70
2018-09-21T00:26:52.349Z,15.80
2018-09-21T00:29:20.554Z,15.80
2018-09-21T00:31:48.775Z,15.80
2018-09-21T00:34:17.021Z,15.70
2018-09-21T00:36:45.491Z,15.80
2018-09-21T00:39:13.661Z,15.70
2018-09-21T00:41:41.895Z,15.50
2018-09-21T00:44:10.101Z,15.40
2018-09-21T00:46:38.284Z,15.30
2018-09-21T00:49:06.597Z,15.30
2018-09-21T00:51:34.799Z,15.30
2018-09-21T00:54:03.008Z,15.10
2018-09-21T00:56:31.220Z,15.10
2018-09-21T00:58:59.377Z,15.10
2018-09-21T01:01:27.562Z,15.20
2018-09-21T01:03:55.709Z,15.20
2018-09-21T01:06:23.948Z,15.20
2018-09-21T01:08:52.153Z,15.40
2018-09-21T01:11:20.341Z,15.50
2018-09-21T01:13:48.557Z,15.60
2018-09-21T01:16:16.769Z,15.70
2018-09-21T01:18:44.977Z,15.70
2018-09-21T01:21:13.120Z,15.80
2018-09-21T01:23:41.357Z,15.80
2018-09-21T01:26:09.661Z,15.70
2018-09-21T01:28:37.929Z,15.60
2018-09-21T01:31:06.245Z,15.60
2018-09-21T01:33:34.421Z,15.50
2018-09-21T01:36:02.705Z,15.50
2018-09-21T01:38:30.981Z,15.50
2018-09-21T01:40:59.189Z,15.50
2018-09-21T01:43:27.393Z,15.50
2018-09-21T01:45:55.565Z,15.50
2018-09-21T01:48:23.796Z,15.50
2018-09-21T01:50:51.949Z,15.60
2018-09-21T01:53:20.153Z,15.60
2018-09-21T01:55:48.404Z,15.60
2018-09-21T01:58:16.598Z,15.60
2018-09-21T02:00:44.817Z,15.60
2018-09-21T02:03:12.995Z,15.60
2018-09-21T02:05:41.209Z,15.60
2018-09-21T02:08:09.769Z,15.60
2018-09-21T02:10:37.985Z,15.50
2018-09-21T02:13:06.217Z,15.40
2018-09-21T02:15:34.429Z,15.40
2018-09-21T02:18:02.632Z,15.50
2018-09-21T02:20:30.797Z,15.50
2018-09-21T02:22:58.993Z,15.40
2018-09-21T02:25:27.260Z,15.40
2018-09-21T02:27:55.526Z,15.30
2018-09-21T02:30:23.821Z,15.30
2018-09-21T02:32:52.082Z,15.40
2018-09-21T02:35:20.345Z,15.30
2018-09-21T02:37:48.651Z,15.20
2018-09-21T02:40:16.898Z,15.30
2018-09-21T02:42:45.102Z,15.20
2018-09-21T02:45:13.283Z,15.20
2018-09-21T02:47:41.482Z,15.20
2018-09-21T02:50:09.645Z,15.10
2018-09-21T02:52:37.925Z,15.10
2018-09-21T02:55:06.245Z,15.20
2018-09-21T02:57:34.421Z,15.20
2018-09-21T03:00:02.641Z,15.20
2018-09-21T03:02:30.789Z,15.10
2018-09-21T03:04:59.012Z,15.20
2018-09-21T03:07:27.200Z,15.10
2018-09-21T03:09:55.473Z,15.10
2018-09-21T03:12:23.632Z,15.10
2018-09-21T03:14:51.858Z,15.20
2018-09-21T03:17:20.074Z,15.20
2018-09-21T03:19:48.237Z,15.30
2018-09-21T03:22:16.416Z,15.30
2018-09-21T03:24:44.597Z,15.30
2018-09-21T03:27:12.788Z,15.20
2018-09-21T03:29:40.996Z,15.10
2018-09-21T03:32:09.173Z,15.00
2018-09-21T03:34:37.416Z,14.90
2018-09-21T03:37:05.686Z,14.90
2018-09-21T03:39:33.977Z,14.70
2018-09-21T03:42:02.235Z,14.80
2018-09-21T03:44:30.433Z,14.80
2018-09-21T03:46:58.685Z,14.80
2018-09-21T03:49:26.900Z,14.90
2018-09-21T03:51:55.064Z,14.90
2018-09-21T03:54:23.255Z,14.90
2018-09-21T03:56:51.449Z,14.90
2018-09-21T03:59:19.629Z,14.90
2018-09-21T04:01:47.851Z,14.80
2018-09-21T04:04:16.034Z,14.90
2018-09-21T04:06:44.261Z,14.90
2018-09-21T04:09:12.429Z,15.00
2018-09-21T04:11:40.848Z,15.00
2018-09-21T04:14:09.104Z,14.80
2018-09-21T04:16:37.266Z,14.80
2018-09-21T04:19:05.753Z,14.80
2018-09-21T04:21:33.973Z,14.70
2018-09-21T04:24:02.166Z,14.80
2018-09-21T04:26:30.369Z,14.70
2018-09-21T04:28:58.525Z,14.70
2018-09-21T04:31:26.728Z,14.70
2018-09-21T04:33:54.934Z,14.50
2018-09-21T04:36:23.159Z,14.40
2018-09-21T04:38:51.360Z,14.30
2018-09-21T04:41:19.530Z,14.30
2018-09-21T04:43:48.112Z,14.30
2018-09-21T04:46:16.670Z,14.20
2018-09-21T04:48:44.950Z,14.20
2018-09-21T04:51:19.740Z,14.20
2018-09-21T04:53:47.945Z,14.20
2018-09-21T04:56:16.145Z,14.20
2018-09-21T04:58:44.327Z,14.20
2018-09-21T05:01:12.531Z,14.20
2018-09-21T05:03:40.706Z,14.10
2018-09-21T05:06:08.933Z,14.10
2018-09-21T05:08:37.137Z,14.10
2018-09-21T05:11:05.458Z,14.10
2018-09-21T05:13:33.691Z,14.10
2018-09-21T05:16:01.873Z,14.10
2018-09-21T05:18:30.073Z,14.20
2018-09-21T05:20:58.250Z,14.20
2018-09-21T05:23:26.464Z,14.30
2018-09-21T05:25:54.638Z,14.40
2018-09-21T05:28:22.861Z,14.40
2018-09-21T05:30:51.017Z,14.60
2018-09-21T05:33:19.253Z,14.80
2018-09-21T05:35:47.429Z,15.00
2018-09-21T05:38:15.664Z,15.10
2018-09-21T05:40:43.832Z,15.10
2018-09-21T05:43:12.034Z,15.30
2018-09-21T05:45:40.217Z,15.50
2018-09-21T05:48:08.453Z,15.80
2018-09-21T05:50:36.621Z,15.70
2018-09-21T05:53:04.845Z,15.80
2018-09-21T05:55:33.070Z,15.90
2018-09-21T05:58:01.430Z,16.00
2018-09-21T06:00:29.629Z,16.20
2018-09-21T06:02:57.862Z,16.30
2018-09-21T06:05:26.101Z,16.40
2018-09-21T06:07:54.321Z,16.60
2018-09-21T06:10:22.517Z,16.70
2018-09-21T06:12:50.705Z,16.90
2018-09-21T06:15:18.912Z,17.10
2018-09-21T06:17:47.134Z,17.30
2018-09-21T06:20:15.312Z,17.40
2018-09-21T06:22:45.452Z,17.50
2018-09-21T06:25:11.781Z,17.40
2018-09-21T06:27:39.993Z,17.60
2018-09-21T06:30:08.250Z,17.50
2018-09-21T06:32:36.459Z,17.50
2018-09-21T06:35:04.789Z,17.80
2018-09-21T06:37:32.993Z,18.00
2018-09-21T06:40:01.199Z,18.20
2018-09-21T06:42:29.374Z,18.30
2018-09-21T06:44:57.641Z,18.50
2018-09-21T06:47:25.818Z,18.50
2018-09-21T06:49:54.059Z,18.70
2018-09-21T06:52:22.253Z,18.80
2018-09-21T06:54:50.417Z,18.90
2018-09-21T06:57:18.620Z,18.90
2018-09-21T06:59:46.806Z,19.00
2018-09-21T07:02:15.011Z,19.30
2018-09-21T07:04:43.165Z,19.60
2018-09-21T07:07:11.408Z,19.80
2018-09-21T07:09:39.582Z,20.00
2018-09-21T07:12:07.798Z,20.30
2018-09-21T07:14:36.017Z,20.30
2018-09-21T07:17:04.209Z,20.20
2018-09-21T07:19:32.397Z,20.20
2018-09-21T07:22:00.573Z,20.30
2018-09-21T07:24:28.774Z,20.50
2018-09-21T07:26:57.001Z,20.60
2018-09-21T07:29:25.251Z,20.60
2018-09-21T07:31:53.597Z,20.90
2018-09-21T07:34:21.804Z,21.10
2018-09-21T07:36:50.009Z,21.20
2018-09-21T07:39:18.170Z,21.30
2018-09-21T07:41:46.377Z,21.50
2018-09-21T07:44:14.556Z,21.90
2018-09-21T07:46:42.870Z,22.00
2018-09-21T07:49:11.041Z,22.20
2018-09-21T07:51:39.258Z,22.30
2018-09-21T07:54:07.470Z,22.40
2018-09-21T07:56:35.641Z,22.50
2018-09-21T07:59:03.877Z,22.70
2018-09-21T08:01:32.100Z,22.80
2018-09-21T08:04:00.297Z,23.00
2018-09-21T08:06:28.480Z,23.00
2018-09-21T08:08:56.677Z,23.10
2018-09-21T08:11:24.877Z,23.20
2018-09-21T08:13:53.120Z,23.30
2018-09-21T08:16:21.401Z,23.40
2018-09-21T08:18:49.617Z,23.60
2018-09-21T08:21:17.829Z,23.60
2018-09-21T08:23:45.990Z,23.70
2018-09-21T08:26:14.208Z,23.80
2018-09-21T08:28:42.374Z,23.80
2018-09-21T08:31:10.564Z,23.90
2018-09-21T08:33:38.818Z,23.90
2018-09-21T08:36:07.010Z,24.20
2018-09-21T08:38:35.240Z,24.30
2018-09-21T08:41:03.449Z,24.60
2018-09-21T08:43:31.605Z,24.80
2018-09-21T08:45:59.809Z,24.80
2018-09-21T08:48:27.993Z,25.10
2018-09-21T08:50:56.169Z,25.20
2018-09-21T08:53:24.369Z,25.20
2018-09-21T08:55:52.528Z,25.40
2018-09-21T08:58:20.745Z,25.40
2018-09-21T09:00:48.893Z,25.50
2018-09-21T09:03:17.138Z,25.70
2018-09-21T09:05:50.764Z,25.70
2018-09-21T09:08:18.979Z,25.70
2018-09-21T09:10:47.263Z,25.70
2018-09-21T09:13:15.662Z,25.90
2018-09-21T09:15:43.865Z,26.00
2018-09-21T09:18:12.025Z,26.00
2018-09-21T09:20:40.226Z,25.90
2018-09-21T09:23:08.559Z,25.90
2018-09-21T09:25:36.705Z,25.90
2018-09-21T09:28:05.013Z,26.00
2018-09-21T09:30:33.174Z,26.10
2018-09-21T09:33:01.708Z,26.10
2018-09-21T09:35:30.205Z,25.90
2018-09-21T09:37:58.412Z,26.10
2018-09-21T09:40:26.625Z,26.20
2018-09-21T09:42:54.850Z,26.20
2018-09-21T09:45:23.085Z,26.40
2018-09-21T09:47:51.264Z,26.40
2018-09-21T09:50:19.481Z,26.20
2018-09-21T09:52:47.752Z,26.30
2018-09-21T09:55:16.640Z,26.50
2018-09-21T09:57:44.898Z,26.50
2018-09-21T10:00:13.200Z,26.60
2018-09-21T10:02:41.405Z,26.50
2018-09-21T10:05:09.669Z,26.60
2018-09-21T10:07:37.861Z,26.60
2018-09-21T10:10:06.596Z,26.60
2018-09-21T10:12:34.882Z,26.90
2018-09-21T10:15:03.204Z,26.80
2018-09-21T10:17:31.371Z,26.80
2018-09-21T10:19:59.569Z,26.70
2018-09-21T10:22:27.733Z,27.00
2018-09-21T10:24:55.933Z,27.30
2018-09-21T10:27:24.206Z,27.30
2018-09-21T10:29:52.401Z,27.30
2018-09-21T10:32:20.617Z,27.50
2018-09-21T10:34:48.855Z,27.50
2018-09-21T10:37:17.052Z,27.70
2018-09-21T10:39:45.232Z,27.80
2018-09-21T10:42:13.451Z,27.90
2018-09-21T10:44:41.645Z,27.80
2018-09-21T10:47:09.796Z,27.80
2018-09-21T10:49:37.988Z,28.00
2018-09-21T10:52:06.241Z,28.40
2018-09-21T10:54:34.448Z,28.30
2018-09-21T10:57:02.658Z,28.40
2018-09-21T10:59:30.833Z,28.10
2018-09-21T11:01:59.070Z,28.00
2018-09-21T11:04:27.369Z,28.20
2018-09-21T11:06:55.626Z,28.50
2018-09-21T11:09:23.833Z,28.70
2018-09-21T11:11:52.426Z,28.80
2018-09-21T11:14:20.617Z,28.80
2018-09-21T11:16:48.853Z,28.30
2018-09-21T11:19:17.049Z,27.90
2018-09-21T11:21:45.252Z,28.00
2018-09-21T11:24:13.429Z,27.90
2018-09-21T11:26:41.666Z,27.60
2018-09-21T11:29:09.846Z,27.50
2018-09-21T11:31:38.074Z,27.20
2018-09-21T11:34:06.363Z,27.10
2018-09-21T11:36:34.541Z,26.90
2018-09-21T11:39:02.881Z,26.90
2018-09-21T11:41:31.040Z,27.30
2018-09-21T11:43:59.249Z,27.70
2018-09-21T11:46:27.476Z,28.00
2018-09-21T11:48:55.666Z,28.40
2018-09-21T11:51:23.873Z,28.50
2018-09-21T11:53:52.053Z,28.40
2018-09-21T11:56:20.461Z,28.50
2018-09-21T11:58:48.644Z,28.60
2018-09-21T12:01:16.882Z,28.60
2018-09-21T12:03:45.117Z,28.90
2018-09-21T12:06:13.285Z,29.10
2018-09-21T12:08:41.525Z,29.20
2018-09-21T12:11:09.725Z,29.30
2018-09-21T12:13:37.932Z,29.30
2018-09-21T12:16:06.346Z,29.40
2018-09-21T12:18:34.483Z,29.50
2018-09-21T12:21:02.694Z,29.30
2018-09-21T12:23:30.877Z,28.80
2018-09-21T12:25:59.137Z,28.90
2018-09-21T12:28:27.365Z,29.20
2018-09-21T12:30:55.561Z,29.10
2018-09-21T12:33:23.809Z,29.20
2018-09-21T12:35:52.060Z,29.10
2018-09-21T12:38:20.290Z,29.30
2018-09-21T12:40:48.505Z,29.30
2018-09-21T12:43:16.690Z,29.20
2018-09-21T12:45:44.910Z,29.10
2018-09-21T12:48:13.238Z,29.00
2018-09-21T12:50:41.616Z,28.60
2018-09-21T12:53:09.846Z,28.60
2018-09-21T12:55:38.081Z,28.70
2018-09-21T12:58:06.493Z,28.80
2018-09-21T13:00:40.216Z,28.90
2018-09-21T13:03:08.464Z,28.60
2018-09-21T13:05:36.648Z,28.50
2018-09-21T13:08:04.868Z,28.60
2018-09-21T13:10:33.118Z,28.70
2018-09-21T13:13:01.289Z,28.50
2018-09-21T13:15:29.486Z,28.50
2018-09-21T13:17:57.682Z,28.70
2018-09-21T13:20:28.982Z,28.60
2018-09-21T13:22:57.200Z,28.60
2018-09-21T13:25:25.362Z,28.60
2018-09-21T13:27:53.575Z,28.30
2018-09-21T13:30:21.755Z,28.40
2018-09-21T13:32:49.953Z,28.60
2018-09-21T13:35:18.185Z,28.80
2018-09-21T13:37:46.329Z,28.90
2018-09-21T13:40:14.538Z,28.90
2018-09-21T13:42:42.779Z,28.80
2018-09-21T13:45:11.008Z,28.70
2018-09-21T13:47:39.282Z,28.70
2018-09-21T13:50:07.489Z,28.80
2018-09-21T13:52:35.710Z,28.50
2018-09-21T13:55:03.934Z,28.30
2018-09-21T13:57:32.145Z,28.20
2018-09-21T14:00:01.389Z,27.80
2018-09-21T14:02:29.548Z,27.60
2018-09-21T14:04:57.762Z,27.40
2018-09-21T14:07:26.080Z,27.20
2018-09-21T14:09:54.296Z,27.00
2018-09-21T14:12:22.506Z,27.10
2018-09-21T14:14:50.745Z,27.20
2018-09-21T14:17:19.129Z,27.20
2018-09-21T14:19:47.293Z,27.10
2018-09-21T14:22:16.154Z,27.00
2018-09-21T14:24:47.274Z,27.10
2018-09-21T14:27:15.546Z,27.20
2018-09-21T14:29:43.800Z,27.20
2018-09-21T14:32:11.974Z,27.30
2018-09-21T14:34:40.240Z,27.30
2018-09-21T14:37:08.429Z,27.30
2018-09-21T14:39:36.701Z,27.00
2018-09-21T14:42:05.376Z,26.90
2018-09-21T14:44:33.542Z,27.00
2018-09-21T14:47:01.725Z,26.90
2018-09-21T14:49:29.901Z,26.80
2018-09-21T14:51:58.153Z,26.60
2018-09-21T14:54:26.361Z,26.50
2018-09-21T14:56:54.521Z,26.40
2018-09-21T14:59:22.781Z,26.40
2018-09-21T15:01:50.954Z,26.30
2018-09-21T15:04:19.218Z,26.30
2018-09-21T15:06:47.402Z,26.30
2018-09-21T15:09:15.638Z,26.20
2018-09-21T15:11:43.864Z,26.30
2018-09-21T15:14:12.182Z,26.20
2018-09-21T15:16:40.453Z,26.20
2018-09-21T15:19:09.472Z,26.30
2018-09-21T15:21:37.733Z,26.30
2018-09-21T15:24:05.974Z,26.30
2018-09-21T15:26:34.177Z,26.40
2018-09-21T15:29:02.396Z,26.40
2018-09-21T15:31:30.665Z,26.20
2018-09-21T15:33:58.912Z,26.20
2018-09-21T15:36:27.126Z,26.00
2018-09-21T15:38:55.426Z,26.00
2018-09-21T15:41:23.658Z,25.90
2018-09-21T15:43:51.840Z,25.70
2018-09-21T15:46:20.045Z,25.60
2018-09-21T15:48:48.424Z,25.50
2018-09-21T15:51:16.637Z,25.40
2018-09-21T15:53:44.789Z,25.30
2018-09-21T15:56:13.012Z,25.20
2018-09-21T15:58:41.367Z,25.20
2018-09-21T16:01:09.589Z,25.10
2018-09-21T16:03:37.833Z,25.00
2018-09-21T16:06:06.074Z,24.90
2018-09-21T16:08:34.307Z,24.90
2018-09-21T16:11:02.510Z,24.90
2018-09-21T16:13:30.669Z,24.80
2018-09-21T16:15:58.890Z,24.70
2018-09-21T16:18:27.090Z,24.70
2018-09-21T16:20:55.297Z,24.80
2018-09-21T16:23:23.454Z,24.70
2018-09-21T16:25:51.661Z,24.60
2018-09-21T16:28:19.889Z,24.60
2018-09-21T16:30:48.101Z,24.50
2018-09-21T16:33:16.985Z,24.50
2018-09-21T16:35:45.206Z,24.50
2018-09-21T16:38:13.445Z,24.50
2018-09-21T16:40:41.753Z,24.40
2018-09-21T16:43:09.932Z,24.30
2018-09-21T16:45:38.166Z,24.30
2018-09-21T16:48:06.432Z,24.30
2018-09-21T16:50:34.717Z,24.40
2018-09-21T16:53:03.024Z,24.30
2018-09-21T16:55:31.202Z,24.30
2018-09-21T16:57:59.434Z,24.20
2018-09-21T17:00:27.629Z,24.20
2018-09-21T17:02:55.833Z,24.10
2018-09-21T17:05:24.055Z,24.20
2018-09-21T17:07:52.396Z,24.20
2018-09-21T17:10:20.598Z,24.10
2018-09-21T17:12:48.836Z,24.00
2018-09-21T17:15:17.081Z,23.90
2018-09-21T17:17:45.282Z,23.80
2018-09-21T17:20:13.491Z,23.70
2018-09-21T17:22:41.697Z,23.60
2018-09-21T17:25:09.985Z,23.50
2018-09-21T17:27:38.266Z,23.50
2018-09-21T17:30:06.482Z,23.40
2018-09-21T17:32:34.672Z,23.30
2018-09-21T17:35:03.009Z,23.30
2018-09-21T17:37:31.263Z,23.30
2018-09-21T17:39:59.518Z,23.30
2018-09-21T17:42:27.742Z,23.30
2018-09-21T17:44:55.985Z,23.20
2018-09-21T17:47:24.212Z,23.10
2018-09-21T17:49:52.473Z,23.00
2018-09-21T17:52:21.518Z,22.80
2018-09-21T17:54:49.835Z,22.70
2018-09-21T17:57:18.133Z,22.60
2018-09-21T17:59:46.358Z,22.60
2018-09-21T18:02:15.578Z,22.60
2018-09-21T18:04:43.801Z,22.50
2018-09-21T18:07:18.511Z,22.50
2018-09-21T18:09:46.985Z,22.50
2018-09-21T18:12:15.189Z,22.40
2018-09-21T18:14:43.579Z,22.30
2018-09-21T18:17:11.767Z,22.20
2018-09-21T18:19:40.625Z,22.20
2018-09-21T18:22:09.273Z,22.10
2018-09-21T18:24:38.733Z,22.10
2018-09-21T18:27:07.008Z,22.00
2018-09-21T18:29:35.215Z,21.90
2018-09-21T18:32:03.430Z,21.70
2018-09-21T18:34:31.624Z,21.50
2018-09-21T18:36:59.932Z,21.40
2018-09-21T18:39:28.485Z,21.30
2018-09-21T18:41:56.741Z,21.30
2018-09-21T18:44:24.919Z,21.20
2018-09-21T18:46:53.165Z,21.30
2018-09-21T18:49:21.327Z,21.30
2018-09-21T18:51:49.541Z,21.30
2018-09-21T18:54:18.049Z,21.30
2018-09-21T18:56:46.200Z,21.20
2018-09-21T18:59:14.832Z,21.30
2018-09-21T19:01:43.341Z,21.30
2018-09-21T19:04:11.637Z,21.30
2018-09-21T19:06:39.885Z,21.30
2018-09-21T19:09:09.949Z,21.20
2018-09-21T19:11:38.150Z,21.20
2018-09-21T19:14:07.799Z,21.10
2018-09-21T19:16:36.012Z,21.10
2018-09-21T19:19:05.100Z,20.60
2018-09-21T19:21:33.341Z,19.80
2018-09-21T19:24:01.570Z,19.40
2018-09-21T19:26:29.804Z,19.10
2018-09-21T19:28:58.781Z,18.80
2018-09-21T19:31:27.037Z,18.60
2018-09-21T19:33:55.304Z,18.20
2018-09-21T19:36:23.501Z,18.00
2018-09-21T19:38:52.289Z,17.80
2018-09-21T19:41:20.468Z,17.60
2018-09-21T19:43:48.792Z,17.30
2018-09-21T19:46:17.080Z,17.20
2018-09-21T19:48:45.308Z,16.70
2018-09-21T19:51:13.529Z,16.10
2018-09-21T19:53:41.713Z,15.60
2018-09-21T19:56:12.214Z,14.90
2018-09-21T19:58:44.642Z,14.50
2018-09-21T20:01:13.526Z,14.40
2018-09-21T20:03:41.839Z,14.30
2018-09-21T20:06:10.055Z,14.20
2018-09-21T20:08:38.269Z,14.20
2018-09-21T20:11:06.475Z,14.30
2018-09-21T20:13:34.704Z,14.20
2018-09-21T20:16:02.912Z,14.10
2018-09-21T20:18:31.074Z,13.90
2018-09-21T20:20:59.278Z,14.00
2018-09-21T20:23:27.457Z,13.80
2018-09-21T20:25:55.653Z,13.80
2018-09-21T20:28:23.841Z,13.80
2018-09-21T20:30:57.731Z,13.90
2018-09-21T20:33:28.013Z,13.80
2018-09-21T20:35:57.423Z,13.80
2018-09-21T20:38:26.732Z,13.70
2018-09-21T20:40:55.358Z,13.60
2018-09-21T20:43:24.454Z,13.50
2018-09-21T20:45:54.804Z,13.60
2018-09-21T20:48:23.847Z,13.60
2018-09-21T20:50:52.861Z,13.60
2018-09-21T20:53:22.455Z,13.70
2018-09-21T20:55:51.161Z,13.60
2018-09-21T20:58:19.777Z,13.50
2018-09-21T21:00:49.527Z,13.40
2018-09-21T21:03:18.309Z,13.30
2018-09-21T21:05:46.953Z,13.30
2018-09-21T21:08:15.637Z,13.20
2018-09-21T21:10:44.275Z,13.30
2018-09-21T21:13:12.957Z,13.30
2018-09-21T21:15:41.663Z,13.20
2018-09-21T21:18:10.359Z,13.30
2018-09-21T21:20:39.101Z,13.20
2018-09-21T21:23:07.737Z,13.20
2018-09-21T21:25:36.405Z,13.20
2018-09-21T21:28:11.618Z,13.30
2018-09-21T21:30:40.360Z,13.40
2018-09-21T21:33:08.972Z,13.40
2018-09-21T21:35:37.785Z,13.40
2018-09-21T21:38:06.985Z,13.40
2018-09-21T21:40:35.711Z,13.30
2018-09-21T21:43:04.408Z,13.30
2018-09-21T21:45:33.037Z,13.30
2018-09-21T21:48:01.703Z,13.40
2018-09-21T21:50:29.864Z,13.50
2018-09-21T21:52:58.093Z,13.50
2018-09-21T21:55:26.309Z,13.40
2018-09-21T21:57:54.464Z,13.50
2018-09-21T22:00:22.808Z,13.50
2018-09-21T22:02:50.968Z,13.60
2018-09-21T22:05:19.172Z,13.70
2018-09-21T22:07:47.348Z,13.60
2018-09-21T22:10:15.553Z,13.60
2018-09-21T22:12:49.113Z,13.70
2018-09-21T22:15:18.524Z,13.60
2018-09-21T22:17:47.405Z,13.60
2018-09-21T22:20:15.634Z,13.60
2018-09-21T22:22:43.834Z,13.60
2018-09-21T22:25:12.239Z,13.60
2018-09-21T22:27:40.946Z,13.60
2018-09-21T22:30:09.317Z,13.50
2018-09-21T22:32:38.288Z,13.60
2018-09-21T22:35:06.492Z,13.70
2018-09-21T22:37:34.750Z,13.60
2018-09-21T22:40:02.965Z,13.60
2018-09-21T22:42:31.157Z,13.60
2018-09-21T22:44:59.409Z,13.70
2018-09-21T22:47:27.561Z,13.80
2018-09-21T22:49:55.797Z,13.70
2018-09-21T22:52:23.988Z,13.70
2018-09-21T22:54:52.186Z,13.70
2018-09-21T22:57:20.348Z,13.70
2018-09-21T22:59:48.545Z,13.60
2018-09-21T23:02:16.765Z,13.60
2018-09-21T23:04:44.925Z,13.50
2018-09-21T23:07:13.121Z,13.60
2018-09-21T23:09:41.392Z,13.60
2018-09-21T23:12:09.584Z,13.60
2018-09-21T23:14:37.784Z,13.60
2018-09-21T23:17:05.953Z,13.60
2018-09-21T23:19:34.170Z,13.50
2018-09-21T23:22:02.363Z,13.60
2018-09-21T23:24:33.516Z,13.50
2018-09-21T23:27:01.701Z,13.50
2018-09-21T23:29:29.946Z,13.60
2018-09-21T23:31:58.174Z,13.60
2018-09-21T23:34:26.441Z,13.70
2018-09-21T23:36:54.617Z,13.70
2018-09-21T23:39:22.768Z,13.70
2018-09-21T23:41:51.067Z,13.70
2018-09-21T23:44:19.259Z,13.70
2018-09-21T23:46:47.425Z,13.70
2018-09-21T23:49:15.677Z,13.70
2018-09-21T23:51:43.848Z,13.70
2018-09-21T23:54:12.068Z,13.70
2018-09-21T23:56:40.248Z,13.70
2018-09-21T23:59:08.488Z,13.80
